Time;durP1;ratioP1;P1;durP2;ratioP2;P2;SDS_P1;SDS_P2;PMS_P1;PMS_P2;Temp;Humidity;BMP_temperature;BMP_pressure;BME280_temperature;BME280_humidity;BME280_pressure;Samples;Min_cycle;Max_cycle;Signal;HPM_P1;HPM_P2
2022/04/29 00:00:44;;;;;;;0.00;0.00;;;;;;;;;;1753631;28;20240;-76
2022/04/29 00:01:36;;;;;;;0.00;0.00;;;;;;;;;;1755520;28;20209;-76
2022/04/29 00:02:27;;;;;;;0.00;0.00;;;;;;;;;;1754397;28;20201;-76
2022/04/29 00:03:21;;;;;;;0.00;0.00;;;;;;;;;;1754859;28;20228;-76
2022/04/29 00:04:12;;;;;;;0.00;0.00;;;;;;;;;;1755301;28;20293;-76
2022/04/29 00:05:04;;;;;;;0.00;0.00;;;;;;;;;;1755233;28;20590;-76
2022/04/29 00:05:57;;;;;;;0.00;0.00;;;;;;;;;;1753837;28;20229;-76
2022/04/29 00:06:48;;;;;;;0.05;0.05;;;;;;;;;;1754899;28;20604;-76
2022/04/29 00:07:40;;;;;;;0.00;0.00;;;;;;;;;;1755533;28;20742;-75
2022/04/29 00:08:32;;;;;;;0.00;0.00;;;;;;;;;;1755183;28;20519;-75
2022/04/29 00:09:25;;;;;;;0.00;0.00;;;;;;;;;;1752478;28;20233;-74
2022/04/29 00:10:17;;;;;;;0.00;0.00;;;;;;;;;;1752509;28;20213;-74
2022/04/29 00:11:09;;;;;;;0.00;0.00;;;;;;;;;;1755831;28;20197;-74
2022/04/29 00:12:02;;;;;;;0.00;0.00;;;;;;;;;;1752947;28;20209;-73
2022/04/29 00:12:55;;;;;;;0.00;0.00;;;;;;;;;;1755723;28;20201;-74
2022/04/29 00:13:46;;;;;;;0.00;0.00;;;;;;;;;;1756001;28;20223;-74
2022/04/29 00:14:38;;;;;;;0.00;0.00;;;;;;;;;;1755527;28;20202;-74
2022/04/29 00:15:29;;;;;;;0.00;0.00;;;;;;;;;;1754620;28;20211;-74
2022/04/29 00:16:22;;;;;;;0.00;0.00;;;;;;;;;;1754902;28;20246;-74
2022/04/29 00:17:13;;;;;;;0.00;0.00;;;;;;;;;;1754643;28;20683;-74
2022/04/29 00:18:06;;;;;;;0.00;0.00;;;;;;;;;;1755428;28;20722;-74
2022/04/29 00:18:57;;;;;;;0.00;0.00;;;;;;;;;;1754976;28;20212;-74
2022/04/29 00:19:49;;;;;;;0.00;0.00;;;;;;;;;;1755485;28;20293;-74
2022/04/29 00:20:41;;;;;;;0.10;0.10;;;;;;;;;;1753421;28;20559;-74
2022/04/29 00:21:33;;;;;;;0.00;0.00;;;;;;;;;;1755622;28;20240;-74
2022/04/29 00:22:24;;;;;;;0.00;0.00;;;;;;;;;;1754668;28;20206;-74
2022/04/29 00:23:16;;;;;;;0.00;0.00;;;;;;;;;;1754625;28;20748;-74
2022/04/29 00:24:09;;;;;;;0.00;0.00;;;;;;;;;;1754624;28;20206;-74
2022/04/29 00:25:02;;;;;;;0.00;0.00;;;;;;;;;;1752066;28;20213;-74
2022/04/29 00:25:54;;;;;;;0.00;0.00;;;;;;;;;;1753439;28;20229;-74
2022/04/29 00:26:46;;;;;;;0.00;0.00;;;;;;;;;;1753262;28;20679;-74
2022/04/29 00:27:39;;;;;;;0.00;0.00;;;;;;;;;;1754493;28;20209;-74
2022/04/29 00:28:32;;;;;;;0.00;0.00;;;;;;;;;;1755314;28;20201;-74
2022/04/29 00:29:23;;;;;;;0.00;0.00;;;;;;;;;;1755132;28;20210;-74
2022/04/29 00:30:15;;;;;;;0.00;0.00;;;;;;;;;;1749083;28;20209;-74
2022/04/29 00:31:07;;;;;;;0.00;0.00;;;;;;;;;;1755620;28;20236;-74
2022/04/29 00:31:59;;;;;;;0.00;0.00;;;;;;;;;;1756057;28;20328;-74
2022/04/29 00:32:50;;;;;;;0.00;0.00;;;;;;;;;;1755376;28;20206;-74
2022/04/29 00:33:42;;;;;;;0.00;0.00;;;;;;;;;;1755036;28;20193;-74
2022/04/29 00:34:33;;;;;;;0.00;0.00;;;;;;;;;;1755239;28;20213;-73
2022/04/29 00:35:26;;;;;;;0.00;0.00;;;;;;;;;;1753196;28;20320;-74
2022/04/29 00:36:17;;;;;;;0.00;0.00;;;;;;;;;;1754695;28;20198;-74
2022/04/29 00:37:10;;;;;;;0.10;0.10;;;;;;;;;;1754067;28;20288;-74
2022/04/29 00:38:01;;;;;;;0.05;0.05;;;;;;;;;;1755231;28;20579;-74
2022/04/29 00:38:54;;;;;;;0.20;0.20;;;;;;;;;;1754735;28;20198;-74
2022/04/29 00:39:45;;;;;;;0.00;0.00;;;;;;;;;;1755466;28;20206;-74
2022/04/29 00:40:38;;;;;;;0.00;0.00;;;;;;;;;;1752938;28;20271;-74
2022/04/29 00:41:30;;;;;;;0.00;0.00;;;;;;;;;;1755514;28;20217;-74
2022/04/29 00:42:23;;;;;;;0.00;0.00;;;;;;;;;;1754930;28;20197;-74
2022/04/29 00:43:14;;;;;;;0.00;0.00;;;;;;;;;;1753462;28;20205;-74
2022/04/29 00:44:07;;;;;;;0.00;0.00;;;;;;;;;;1752202;28;20365;-74
2022/04/29 00:44:58;;;;;;;0.00;0.00;;;;;;;;;;1751949;28;20270;-74
2022/04/29 00:45:51;;;;;;;0.00;0.00;;;;;;;;;;1753650;28;20221;-74
2022/04/29 00:46:43;;;;;;;0.00;0.00;;;;;;;;;;1754497;28;20202;-74
2022/04/29 00:47:35;;;;;;;0.00;0.00;;;;;;;;;;1755245;28;20233;-74
2022/04/29 00:48:27;;;;;;;0.00;0.00;;;;;;;;;;1754853;28;20228;-74
2022/04/29 00:49:20;;;;;;;0.00;0.00;;;;;;;;;;1755130;28;20708;-74
2022/04/29 00:50:12;;;;;;;0.00;0.00;;;;;;;;;;1753129;28;20213;-74
2022/04/29 00:51:04;;;;;;;0.10;0.10;;;;;;;;;;1751598;28;20286;-74
2022/04/29 00:51:56;;;;;;;0.00;0.00;;;;;;;;;;1754683;28;20239;-74
2022/04/29 00:52:49;;;;;;;0.00;0.00;;;;;;;;;;1755315;28;20197;-74
2022/04/29 00:53:40;;;;;;;0.00;0.00;;;;;;;;;;1755654;28;20210;-74
2022/04/29 00:54:33;;;;;;;0.00;0.00;;;;;;;;;;1755408;28;20198;-74
2022/04/29 00:55:24;;;;;;;0.08;0.08;;;;;;;;;;1753178;28;20222;-74
2022/04/29 00:56:19;;;;;;;0.00;0.00;;;;;;;;;;1754615;28;20201;-74
2022/04/29 00:57:13;;;;;;;0.10;0.10;;;;;;;;;;1754201;28;20667;-74
2022/04/29 00:58:09;;;;;;;0.00;0.00;;;;;;;;;;1748171;28;20210;-74
2022/04/29 00:59:02;;;;;;;0.00;0.00;;;;;;;;;;1754149;28;20197;-74
2022/04/29 00:59:58;;;;;;;0.00;0.00;;;;;;;;;;1750733;28;20530;-74
2022/04/29 01:00:50;;;;;;;0.00;0.00;;;;;;;;;;1751718;28;20233;-74
2022/04/29 01:01:44;;;;;;;0.00;0.00;;;;;;;;;;1753741;28;20208;-74
2022/04/29 01:02:39;;;;;;;0.00;0.00;;;;;;;;;;1756101;28;20259;-74
2022/04/29 01:03:30;;;;;;;0.00;0.00;;;;;;;;;;1754443;28;20190;-74
2022/04/29 01:04:24;;;;;;;0.00;0.00;;;;;;;;;;1755325;28;20599;-74
2022/04/29 01:05:17;;;;;;;0.00;0.00;;;;;;;;;;1754079;28;20712;-74
2022/04/29 01:06:08;;;;;;;0.05;0.05;;;;;;;;;;1755152;28;20197;-73
2022/04/29 01:07:01;;;;;;;0.00;0.00;;;;;;;;;;1754657;28;20197;-74
2022/04/29 01:07:52;;;;;;;0.00;0.00;;;;;;;;;;1755184;28;20202;-74
2022/04/29 01:08:45;;;;;;;0.00;0.00;;;;;;;;;;1756006;28;20613;-74
2022/04/29 01:09:36;;;;;;;0.00;0.00;;;;;;;;;;1754889;28;20216;-74
2022/04/29 01:10:28;;;;;;;0.00;0.00;;;;;;;;;;1752411;28;20229;-74
2022/04/29 01:11:23;;;;;;;0.00;0.00;;;;;;;;;;1755296;28;20201;-74
2022/04/29 01:12:15;;;;;;;0.00;0.00;;;;;;;;;;1755533;28;20216;-74
2022/04/29 01:13:07;;;;;;;0.00;0.00;;;;;;;;;;1749681;28;20207;-74
2022/04/29 01:13:59;;;;;;;0.00;0.00;;;;;;;;;;1753661;28;20201;-74
2022/04/29 01:14:50;;;;;;;0.00;0.00;;;;;;;;;;1755298;28;20228;-74
2022/04/29 01:15:42;;;;;;;0.00;0.00;;;;;;;;;;1753944;28;20674;-74
2022/04/29 01:16:34;;;;;;;0.00;0.00;;;;;;;;;;1754387;28;20639;-74
2022/04/29 01:17:26;;;;;;;0.00;0.00;;;;;;;;;;1755511;28;20220;-74
2022/04/29 01:18:17;;;;;;;0.00;0.00;;;;;;;;;;1753659;28;20248;-75
2022/04/29 01:19:09;;;;;;;0.00;0.00;;;;;;;;;;1754798;28;20201;-75
2022/04/29 01:20:01;;;;;;;0.00;0.00;;;;;;;;;;1754601;28;20293;-75
2022/04/29 01:21:03;;;;;;;0.00;0.00;;;;;;;;;;1753296;28;20734;-74
2022/04/29 01:21:54;;;;;;;0.00;0.00;;;;;;;;;;1754626;28;20522;-74
2022/04/29 01:22:47;;;;;;;0.00;0.00;;;;;;;;;;1755029;28;20198;-75
2022/04/29 01:23:41;;;;;;;0.00;0.00;;;;;;;;;;1753834;28;20202;-74
2022/04/29 01:24:33;;;;;;;0.00;0.00;;;;;;;;;;1754717;28;20227;-74
2022/04/29 01:25:27;;;;;;;0.00;0.00;;;;;;;;;;1753061;28;20507;-75
2022/04/29 01:26:19;;;;;;;0.00;0.00;;;;;;;;;;1754338;28;20651;-74
2022/04/29 01:27:12;;;;;;;0.00;0.00;;;;;;;;;;1752287;28;20202;-74
2022/04/29 01:28:05;;;;;;;0.00;0.00;;;;;;;;;;1755058;28;20858;-74
2022/04/29 01:28:57;;;;;;;0.00;0.00;;;;;;;;;;1754187;28;20197;-74
2022/04/29 01:29:52;;;;;;;0.00;0.00;;;;;;;;;;1751590;28;20204;-74
2022/04/29 01:30:44;;;;;;;0.00;0.00;;;;;;;;;;1752247;28;20229;-75
2022/04/29 01:31:38;;;;;;;0.00;0.00;;;;;;;;;;1754985;28;20201;-74
2022/04/29 01:32:31;;;;;;;0.00;0.00;;;;;;;;;;1754564;28;20654;-74
2022/04/29 01:33:23;;;;;;;0.00;0.00;;;;;;;;;;1753720;28;20205;-74
2022/04/29 01:34:15;;;;;;;0.00;0.00;;;;;;;;;;1754616;28;20209;-74
2022/04/29 01:35:07;;;;;;;0.00;0.00;;;;;;;;;;1754437;28;20604;-74
2022/04/29 01:35:59;;;;;;;0.00;0.00;;;;;;;;;;1752817;28;20233;-74
2022/04/29 01:36:51;;;;;;;0.00;0.00;;;;;;;;;;1753327;28;20193;-74
2022/04/29 01:37:43;;;;;;;0.00;0.00;;;;;;;;;;1754693;28;20793;-74
2022/04/29 01:38:36;;;;;;;0.00;0.00;;;;;;;;;;1754236;28;20204;-74
2022/04/29 01:39:27;;;;;;;0.05;0.05;;;;;;;;;;1754907;28;20948;-74
2022/04/29 01:40:20;;;;;;;0.00;0.00;;;;;;;;;;1752399;28;20193;-74
2022/04/29 01:41:13;;;;;;;0.00;0.00;;;;;;;;;;1755203;28;20207;-74
2022/04/29 01:42:05;;;;;;;0.00;0.00;;;;;;;;;;1754509;28;20225;-74
2022/04/29 01:42:56;;;;;;;0.10;0.10;;;;;;;;;;1754895;28;20233;-74
2022/04/29 01:43:49;;;;;;;0.00;0.00;;;;;;;;;;1750677;28;20238;-74
2022/04/29 01:44:40;;;;;;;0.00;0.00;;;;;;;;;;1747674;28;20613;-74
2022/04/29 01:45:32;;;;;;;0.00;0.00;;;;;;;;;;1741035;28;20256;-75
2022/04/29 01:46:23;;;;;;;0.00;0.00;;;;;;;;;;1747425;28;20221;-76
2022/04/29 01:47:16;;;;;;;0.00;0.00;;;;;;;;;;1745051;28;20214;-76
2022/04/29 01:48:07;;;;;;;0.00;0.00;;;;;;;;;;1749051;28;20677;-76
2022/04/29 01:48:59;;;;;;;0.00;0.00;;;;;;;;;;1745867;28;20195;-75
2022/04/29 01:49:50;;;;;;;0.00;0.00;;;;;;;;;;1747502;28;20198;-76
2022/04/29 01:50:42;;;;;;;0.00;0.00;;;;;;;;;;1744798;28;20233;-76
2022/04/29 01:51:33;;;;;;;0.00;0.00;;;;;;;;;;1747839;28;20206;-76
2022/04/29 01:52:26;;;;;;;0.00;0.00;;;;;;;;;;1742941;28;20234;-76
2022/04/29 01:53:17;;;;;;;0.03;0.03;;;;;;;;;;1744661;28;20206;-76
2022/04/29 01:54:11;;;;;;;0.10;0.10;;;;;;;;;;1749839;28;20639;-76
2022/04/29 01:55:02;;;;;;;0.00;0.00;;;;;;;;;;1747720;28;20214;-76
2022/04/29 01:55:56;;;;;;;0.00;0.00;;;;;;;;;;1748721;28;20320;-76
2022/04/29 01:56:49;;;;;;;0.10;0.10;;;;;;;;;;1746452;28;20222;-76
2022/04/29 01:57:44;;;;;;;0.00;0.00;;;;;;;;;;1740842;28;20569;-76
2022/04/29 01:58:35;;;;;;;0.00;0.00;;;;;;;;;;1745758;28;20206;-76
2022/04/29 01:59:28;;;;;;;0.00;0.00;;;;;;;;;;1748044;28;20238;-76
2022/04/29 02:00:19;;;;;;;0.10;0.10;;;;;;;;;;1742412;28;20206;-76
2022/04/29 02:01:12;;;;;;;0.00;0.00;;;;;;;;;;1748495;28;20232;-76
2022/04/29 02:02:06;;;;;;;0.00;0.00;;;;;;;;;;1745416;28;20699;-76
2022/04/29 02:02:58;;;;;;;0.00;0.00;;;;;;;;;;1741840;28;20552;-76
2022/04/29 02:03:49;;;;;;;0.00;0.00;;;;;;;;;;1748983;28;20240;-76
2022/04/29 02:04:41;;;;;;;0.00;0.00;;;;;;;;;;1748389;28;20229;-76
2022/04/29 02:05:33;;;;;;;0.00;0.00;;;;;;;;;;1748529;28;20543;-76
2022/04/29 02:06:25;;;;;;;0.00;0.00;;;;;;;;;;1746638;28;20198;-75
2022/04/29 02:07:16;;;;;;;0.00;0.00;;;;;;;;;;1744167;28;20628;-75
2022/04/29 02:08:09;;;;;;;0.00;0.00;;;;;;;;;;1748709;28;20228;-75
2022/04/29 02:09:01;;;;;;;0.00;0.00;;;;;;;;;;1748071;28;20284;-75
2022/04/29 02:09:56;;;;;;;0.00;0.00;;;;;;;;;;1747706;28;20741;-76
2022/04/29 02:10:47;;;;;;;0.00;0.00;;;;;;;;;;1737957;28;20248;-76
2022/04/29 02:11:39;;;;;;;0.00;0.00;;;;;;;;;;1747174;28;20243;-76
2022/04/29 02:12:31;;;;;;;0.08;0.08;;;;;;;;;;1741902;28;20242;-76
2022/04/29 02:13:24;;;;;;;0.00;0.00;;;;;;;;;;1744649;28;20225;-76
2022/04/29 02:14:17;;;;;;;0.00;0.00;;;;;;;;;;1747274;28;20293;-76
2022/04/29 02:15:10;;;;;;;0.00;0.00;;;;;;;;;;1746760;28;20217;-76
2022/04/29 02:16:01;;;;;;;0.00;0.00;;;;;;;;;;1746120;28;20298;-76
2022/04/29 02:16:55;;;;;;;0.00;0.00;;;;;;;;;;1746044;28;20257;-76
2022/04/29 02:17:47;;;;;;;0.00;0.00;;;;;;;;;;1737918;28;20253;-76
2022/04/29 02:18:39;;;;;;;0.00;0.00;;;;;;;;;;1747091;28;20889;-76
2022/04/29 02:19:30;;;;;;;0.00;0.00;;;;;;;;;;1749628;28;20784;-76
2022/04/29 02:20:24;;;;;;;0.00;0.00;;;;;;;;;;1746207;28;20761;-76
2022/04/29 02:21:16;;;;;;;0.00;0.00;;;;;;;;;;1748906;28;20206;-76
2022/04/29 02:22:09;;;;;;;0.00;0.00;;;;;;;;;;1745459;28;20255;-76
2022/04/29 02:23:00;;;;;;;0.10;0.10;;;;;;;;;;1738706;28;20764;-76
2022/04/29 02:23:52;;;;;;;0.00;0.00;;;;;;;;;;1741722;28;20302;-76
2022/04/29 02:24:44;;;;;;;0.00;0.00;;;;;;;;;;1742956;28;20620;-76
2022/04/29 02:25:37;;;;;;;0.00;0.00;;;;;;;;;;1729740;28;20309;-76
2022/04/29 02:26:29;;;;;;;0.05;0.05;;;;;;;;;;1739811;28;20203;-76
2022/04/29 02:27:21;;;;;;;0.00;0.00;;;;;;;;;;1745222;28;20206;-76
2022/04/29 02:28:12;;;;;;;0.00;0.00;;;;;;;;;;1738086;28;20203;-76
2022/04/29 02:29:05;;;;;;;0.00;0.00;;;;;;;;;;1746727;28;20248;-76
2022/04/29 02:29:56;;;;;;;0.00;0.00;;;;;;;;;;1747338;28;20213;-76
2022/04/29 02:30:48;;;;;;;0.00;0.00;;;;;;;;;;1743458;28;20222;-76
2022/04/29 02:31:39;;;;;;;0.00;0.00;;;;;;;;;;1747403;28;20222;-76
2022/04/29 02:32:32;;;;;;;0.00;0.00;;;;;;;;;;1741984;28;20293;-76
2022/04/29 02:33:25;;;;;;;0.10;0.10;;;;;;;;;;1744866;28;20209;-76
2022/04/29 02:34:16;;;;;;;0.00;0.00;;;;;;;;;;1747364;28;20312;-76
2022/04/29 02:35:08;;;;;;;0.00;0.00;;;;;;;;;;1747145;28;20202;-76
2022/04/29 02:36:01;;;;;;;0.00;0.00;;;;;;;;;;1746341;28;20230;-76
2022/04/29 02:36:54;;;;;;;0.00;0.00;;;;;;;;;;1746447;28;20277;-76
2022/04/29 02:37:45;;;;;;;0.00;0.00;;;;;;;;;;1743026;28;20203;-77
2022/04/29 02:38:40;;;;;;;0.00;0.00;;;;;;;;;;1746801;28;20245;-76
2022/04/29 02:39:31;;;;;;;0.00;0.00;;;;;;;;;;1747629;28;20359;-76
2022/04/29 02:40:26;;;;;;;0.00;0.00;;;;;;;;;;1744861;28;20210;-76
2022/04/29 02:41:19;;;;;;;0.00;0.00;;;;;;;;;;1740548;28;20203;-76
2022/04/29 02:42:11;;;;;;;0.00;0.00;;;;;;;;;;1743722;28;20202;-76
2022/04/29 02:43:02;;;;;;;0.00;0.00;;;;;;;;;;1747288;28;20957;-76
2022/04/29 02:43:54;;;;;;;0.00;0.00;;;;;;;;;;1749777;28;20245;-76
2022/04/29 02:44:46;;;;;;;0.00;0.00;;;;;;;;;;1754252;28;20197;-76
2022/04/29 02:45:38;;;;;;;0.00;0.00;;;;;;;;;;1751947;28;20760;-76
2022/04/29 02:46:29;;;;;;;0.00;0.00;;;;;;;;;;1752155;28;20212;-76
2022/04/29 02:47:21;;;;;;;0.00;0.00;;;;;;;;;;1752690;28;20229;-76
2022/04/29 02:48:12;;;;;;;0.10;0.10;;;;;;;;;;1754035;28;20209;-76
2022/04/29 02:49:05;;;;;;;0.00;0.00;;;;;;;;;;1753664;28;20205;-76
2022/04/29 02:49:56;;;;;;;0.00;0.00;;;;;;;;;;1749809;28;20609;-76
2022/04/29 02:50:48;;;;;;;0.00;0.00;;;;;;;;;;1751385;28;20249;-76
2022/04/29 02:51:39;;;;;;;0.00;0.00;;;;;;;;;;1753835;28;20755;-76
2022/04/29 02:52:31;;;;;;;0.00;0.00;;;;;;;;;;1753621;28;20650;-75
2022/04/29 02:53:22;;;;;;;0.10;0.10;;;;;;;;;;1754129;28;20209;-75
2022/04/29 02:54:15;;;;;;;0.13;0.13;;;;;;;;;;1753367;28;20201;-76
2022/04/29 02:55:07;;;;;;;0.00;0.00;;;;;;;;;;1753927;28;20209;-76
2022/04/29 02:55:59;;;;;;;0.08;0.08;;;;;;;;;;1752362;28;20620;-76
2022/04/29 02:56:52;;;;;;;0.00;0.00;;;;;;;;;;1751888;28;20209;-76
2022/04/29 02:57:44;;;;;;;0.00;0.00;;;;;;;;;;1750943;28;20722;-76
2022/04/29 02:58:36;;;;;;;0.05;0.05;;;;;;;;;;1749174;28;20272;-76
2022/04/29 02:59:28;;;;;;;0.00;0.00;;;;;;;;;;1754169;28;20260;-76
2022/04/29 03:00:19;;;;;;;0.00;0.00;;;;;;;;;;1750774;28;20202;-76
2022/04/29 03:01:16;;;;;;;0.00;0.00;;;;;;;;;;1754882;28;20193;-76
2022/04/29 03:02:07;;;;;;;0.00;0.00;;;;;;;;;;1753707;28;20204;-76
2022/04/29 03:02:59;;;;;;;0.00;0.00;;;;;;;;;;1754498;28;20508;-76
2022/04/29 03:03:50;;;;;;;0.10;0.10;;;;;;;;;;1753395;28;20201;-76
2022/04/29 03:04:42;;;;;;;0.03;0.03;;;;;;;;;;1754026;28;20209;-76
2022/04/29 03:05:34;;;;;;;0.00;0.00;;;;;;;;;;1751871;28;20237;-76
2022/04/29 03:06:26;;;;;;;0.00;0.00;;;;;;;;;;1754014;28;20200;-76
2022/04/29 03:07:17;;;;;;;0.03;0.03;;;;;;;;;;1753740;28;20210;-76
2022/04/29 03:08:09;;;;;;;0.00;0.00;;;;;;;;;;1754406;28;20197;-76
2022/04/29 03:09:01;;;;;;;0.10;0.10;;;;;;;;;;1753499;28;20624;-76
2022/04/29 03:09:53;;;;;;;0.00;0.00;;;;;;;;;;1754390;28;20284;-76
2022/04/29 03:10:46;;;;;;;0.00;0.00;;;;;;;;;;1751623;28;20213;-76
2022/04/29 03:11:39;;;;;;;0.00;0.00;;;;;;;;;;1754151;28;20627;-77
2022/04/29 03:12:32;;;;;;;0.00;0.00;;;;;;;;;;1753550;28;20197;-77
2022/04/29 03:13:24;;;;;;;0.08;0.08;;;;;;;;;;1754115;28;20206;-77
2022/04/29 03:14:16;;;;;;;0.00;0.00;;;;;;;;;;1752927;28;20204;-77
2022/04/29 03:15:16;;;;;;;0.00;0.00;;;;;;;;;;1754001;28;20697;-77
2022/04/29 03:16:09;;;;;;;0.00;0.00;;;;;;;;;;1751650;28;20312;-77
2022/04/29 03:17:00;;;;;;;0.00;0.00;;;;;;;;;;1753714;28;20519;-77
2022/04/29 03:19:02;;;;;;;0.00;0.00;;;;;;;;;;1753453;28;20289;-76
2022/04/29 03:19:53;;;;;;;0.00;0.00;;;;;;;;;;1754096;28;20292;-76
2022/04/29 03:20:46;;;;;;;0.00;0.00;;;;;;;;;;1751943;28;20233;-77
2022/04/29 03:21:37;;;;;;;0.00;0.00;;;;;;;;;;1754207;28;20228;-76
2022/04/29 03:22:30;;;;;;;0.00;0.00;;;;;;;;;;1753951;28;20288;-77
2022/04/29 03:23:22;;;;;;;0.00;0.00;;;;;;;;;;1753775;28;20635;-76
2022/04/29 03:24:14;;;;;;;0.00;0.00;;;;;;;;;;1753322;28;20212;-76
2022/04/29 03:25:07;;;;;;;0.00;0.00;;;;;;;;;;1753904;28;20212;-76
2022/04/29 03:25:59;;;;;;;0.00;0.00;;;;;;;;;;1752759;28;20239;-76
2022/04/29 03:26:51;;;;;;;0.00;0.00;;;;;;;;;;1753366;28;20580;-76
2022/04/29 03:27:43;;;;;;;0.00;0.00;;;;;;;;;;1754279;28;20871;-76
2022/04/29 03:28:36;;;;;;;0.00;0.00;;;;;;;;;;1753967;28;20350;-76
2022/04/29 03:29:28;;;;;;;0.10;0.10;;;;;;;;;;1752639;28;20236;-76
2022/04/29 03:30:20;;;;;;;0.10;0.10;;;;;;;;;;1749002;28;20627;-75
2022/04/29 03:31:11;;;;;;;0.10;0.10;;;;;;;;;;1754267;28;20194;-75
2022/04/29 03:32:03;;;;;;;0.00;0.00;;;;;;;;;;1753782;28;20193;-76
2022/04/29 03:32:55;;;;;;;0.00;0.00;;;;;;;;;;1754294;28;20247;-76
2022/04/29 03:33:47;;;;;;;0.00;0.00;;;;;;;;;;1753759;28;20657;-75
2022/04/29 03:34:39;;;;;;;0.10;0.10;;;;;;;;;;1754350;28;20216;-76
2022/04/29 03:35:34;;;;;;;0.00;0.00;;;;;;;;;;1752105;28;20266;-76
2022/04/29 03:36:26;;;;;;;0.10;0.10;;;;;;;;;;1754119;28;20209;-76
2022/04/29 03:37:17;;;;;;;0.00;0.00;;;;;;;;;;1753397;28;20270;-76
2022/04/29 03:38:09;;;;;;;0.00;0.00;;;;;;;;;;1753994;28;20620;-75
2022/04/29 03:39:02;;;;;;;0.00;0.00;;;;;;;;;;1753630;28;20233;-75
2022/04/29 03:39:53;;;;;;;0.00;0.00;;;;;;;;;;1754149;28;20300;-76
2022/04/29 03:40:46;;;;;;;0.00;0.00;;;;;;;;;;1751660;28;20714;-76
2022/04/29 03:41:37;;;;;;;0.00;0.00;;;;;;;;;;1754417;28;20197;-76
2022/04/29 03:42:29;;;;;;;0.00;0.00;;;;;;;;;;1753712;28;20293;-76
2022/04/29 03:43:22;;;;;;;0.00;0.00;;;;;;;;;;1754359;28;20920;-76
2022/04/29 03:44:14;;;;;;;0.00;0.00;;;;;;;;;;1755652;28;20232;-76
2022/04/29 03:45:06;;;;;;;0.00;0.00;;;;;;;;;;1753977;28;20205;-76
2022/04/29 03:45:58;;;;;;;0.00;0.00;;;;;;;;;;1753011;28;20229;-76
2022/04/29 03:46:50;;;;;;;0.10;0.10;;;;;;;;;;1749743;28;20198;-76
2022/04/29 03:47:42;;;;;;;0.00;0.00;;;;;;;;;;1751500;28;20251;-76
2022/04/29 03:49:40;;;;;;;0.00;0.00;;;;;;;;;;1751561;28;20235;-76
2022/04/29 03:50:32;;;;;;;0.05;0.05;;;;;;;;;;1749758;28;20237;-76
2022/04/29 03:51:24;;;;;;;0.00;0.00;;;;;;;;;;1753902;28;20563;-76
2022/04/29 03:52:15;;;;;;;0.00;0.00;;;;;;;;;;1753322;28;20213;-76
2022/04/29 03:53:08;;;;;;;0.00;0.00;;;;;;;;;;1754446;28;20243;-76
2022/04/29 03:53:59;;;;;;;0.10;0.10;;;;;;;;;;1756798;28;20599;-76
2022/04/29 03:54:51;;;;;;;0.00;0.00;;;;;;;;;;1754302;28;20201;-76
2022/04/29 03:55:42;;;;;;;0.00;0.00;;;;;;;;;;1755417;28;20232;-75
2022/04/29 03:56:35;;;;;;;0.10;0.10;;;;;;;;;;1753634;28;20730;-75
2022/04/29 03:57:26;;;;;;;0.00;0.00;;;;;;;;;;1757211;28;20201;-75
2022/04/29 03:58:18;;;;;;;0.00;0.00;;;;;;;;;;1753929;28;20793;-76
2022/04/29 03:59:12;;;;;;;0.10;0.10;;;;;;;;;;1757078;28;20219;-76
2022/04/29 04:00:04;;;;;;;0.00;0.00;;;;;;;;;;1753731;28;20209;-76
2022/04/29 04:00:56;;;;;;;0.00;0.00;;;;;;;;;;1755742;28;20248;-76
2022/04/29 04:01:48;;;;;;;0.00;0.00;;;;;;;;;;1753957;28;20205;-76
2022/04/29 04:02:39;;;;;;;0.00;0.00;;;;;;;;;;1752688;28;20202;-76
2022/04/29 04:03:31;;;;;;;0.00;0.00;;;;;;;;;;1753843;28;20201;-76
2022/04/29 04:04:22;;;;;;;0.00;0.00;;;;;;;;;;1753546;28;20848;-76
2022/04/29 04:05:15;;;;;;;0.00;0.00;;;;;;;;;;1751520;28;20190;-76
2022/04/29 04:07:17;;;;;;;0.00;0.00;;;;;;;;;;1753803;28;20741;-76
2022/04/29 04:08:08;;;;;;;0.00;0.00;;;;;;;;;;1753069;28;20201;-76
2022/04/29 04:09:00;;;;;;;0.00;0.00;;;;;;;;;;1756713;28;20204;-76
2022/04/29 04:09:52;;;;;;;0.10;0.10;;;;;;;;;;1753971;28;20615;-76
2022/04/29 04:10:44;;;;;;;0.00;0.00;;;;;;;;;;1755457;28;20229;-76
2022/04/29 04:11:37;;;;;;;0.00;0.00;;;;;;;;;;1753960;28;20202;-75
2022/04/29 04:12:38;;;;;;;0.00;0.00;;;;;;;;;;1758155;28;20563;-76
2022/04/29 04:13:29;;;;;;;0.10;0.10;;;;;;;;;;1755992;28;20642;-76
2022/04/29 04:14:22;;;;;;;0.00;0.00;;;;;;;;;;1758691;28;20695;-76
2022/04/29 04:15:14;;;;;;;0.10;0.10;;;;;;;;;;1755079;28;20205;-76
2022/04/29 04:16:07;;;;;;;0.00;0.00;;;;;;;;;;1758094;28;20233;-76
2022/04/29 04:16:58;;;;;;;0.00;0.00;;;;;;;;;;1755290;28;20674;-76
2022/04/29 04:17:50;;;;;;;0.00;0.00;;;;;;;;;;1754757;28;20197;-76
2022/04/29 04:18:41;;;;;;;0.00;0.00;;;;;;;;;;1755906;28;20202;-76
2022/04/29 04:19:34;;;;;;;0.00;0.00;;;;;;;;;;1757482;28;20308;-76
2022/04/29 04:20:25;;;;;;;0.10;0.10;;;;;;;;;;1752035;28;20834;-76
2022/04/29 04:21:17;;;;;;;0.00;0.00;;;;;;;;;;1753833;28;20216;-75
2022/04/29 04:22:08;;;;;;;0.00;0.00;;;;;;;;;;1754857;28;20246;-76
2022/04/29 04:23:01;;;;;;;0.00;0.00;;;;;;;;;;1755461;28;20224;-76
2022/04/29 04:23:53;;;;;;;0.00;0.00;;;;;;;;;;1754738;28;20627;-75
2022/04/29 04:24:45;;;;;;;0.00;0.00;;;;;;;;;;1755150;28;20204;-76
2022/04/29 04:25:36;;;;;;;0.00;0.00;;;;;;;;;;1756478;28;20952;-76
2022/04/29 04:26:28;;;;;;;0.00;0.00;;;;;;;;;;1755220;28;20201;-76
2022/04/29 04:27:19;;;;;;;0.00;0.00;;;;;;;;;;1755643;28;20209;-76
2022/04/29 04:28:13;;;;;;;0.03;0.03;;;;;;;;;;1755430;28;20201;-76
2022/04/29 04:29:04;;;;;;;0.00;0.00;;;;;;;;;;1756880;28;20552;-76
2022/04/29 04:29:58;;;;;;;0.00;0.00;;;;;;;;;;1755150;28;20288;-76
2022/04/29 04:30:49;;;;;;;0.00;0.00;;;;;;;;;;1754840;28;20702;-76
2022/04/29 04:31:41;;;;;;;0.00;0.00;;;;;;;;;;1754946;28;20198;-75
2022/04/29 04:32:33;;;;;;;0.00;0.00;;;;;;;;;;1758491;28;20216;-76
2022/04/29 04:33:27;;;;;;;0.00;0.00;;;;;;;;;;1755131;28;20212;-76
2022/04/29 04:35:29;;;;;;;0.00;0.00;;;;;;;;;;1756193;28;20197;-76
2022/04/29 04:36:20;;;;;;;0.00;0.00;;;;;;;;;;1754612;28;20631;-75
2022/04/29 04:37:13;;;;;;;0.10;0.10;;;;;;;;;;1754849;28;20206;-76
2022/04/29 04:38:04;;;;;;;0.00;0.00;;;;;;;;;;1754687;28;20266;-76
2022/04/29 04:38:57;;;;;;;0.00;0.00;;;;;;;;;;1754314;28;20263;-76
2022/04/29 04:39:48;;;;;;;0.00;0.00;;;;;;;;;;1748367;28;20575;-76
2022/04/29 04:40:40;;;;;;;0.00;0.00;;;;;;;;;;1755327;28;20235;-76
2022/04/29 04:41:31;;;;;;;0.00;0.00;;;;;;;;;;1755612;28;20209;-76
2022/04/29 04:42:24;;;;;;;0.00;0.00;;;;;;;;;;1758940;28;20211;-76
2022/04/29 04:43:15;;;;;;;0.00;0.00;;;;;;;;;;1755658;28;20209;-76
2022/04/29 04:44:08;;;;;;;0.00;0.00;;;;;;;;;;1746800;28;20722;-76
2022/04/29 04:45:03;;;;;;;0.00;0.00;;;;;;;;;;1747538;28;20206;-76
2022/04/29 04:45:56;;;;;;;0.10;0.10;;;;;;;;;;1748759;28;20395;-76
2022/04/29 04:46:47;;;;;;;0.00;0.00;;;;;;;;;;1755131;28;20216;-75
2022/04/29 04:47:39;;;;;;;0.00;0.00;;;;;;;;;;1749415;28;20220;-75
2022/04/29 04:48:31;;;;;;;0.00;0.00;;;;;;;;;;1750896;28;20221;-76
2022/04/29 04:49:23;;;;;;;0.10;0.10;;;;;;;;;;1752250;28;20294;-76
2022/04/29 04:50:14;;;;;;;0.00;0.00;;;;;;;;;;1750112;28;20216;-76
2022/04/29 04:51:06;;;;;;;0.00;0.00;;;;;;;;;;1751418;28;20205;-76
2022/04/29 04:51:57;;;;;;;0.00;0.00;;;;;;;;;;1754431;28;20206;-76
2022/04/29 04:52:50;;;;;;;0.00;0.00;;;;;;;;;;1755085;28;20573;-76
2022/04/29 04:53:41;;;;;;;0.00;0.00;;;;;;;;;;1753525;28;20221;-76
2022/04/29 04:54:33;;;;;;;0.00;0.00;;;;;;;;;;1753589;28;20220;-76
2022/04/29 04:55:28;;;;;;;0.00;0.00;;;;;;;;;;1754024;28;20209;-76
2022/04/29 04:56:19;;;;;;;0.10;0.10;;;;;;;;;;1753401;28;20198;-76
2022/04/29 04:57:12;;;;;;;0.00;0.00;;;;;;;;;;1755162;28;20223;-76
2022/04/29 04:58:03;;;;;;;0.00;0.00;;;;;;;;;;1754793;28;20209;-76
2022/04/29 04:58:56;;;;;;;0.00;0.00;;;;;;;;;;1757369;28;20205;-76
2022/04/29 04:59:47;;;;;;;0.00;0.00;;;;;;;;;;1755027;28;20212;-76
2022/04/29 05:00:40;;;;;;;0.00;0.00;;;;;;;;;;1749541;28;20256;-76
2022/04/29 05:01:32;;;;;;;0.00;0.00;;;;;;;;;;1754783;28;20213;-76
2022/04/29 05:02:24;;;;;;;0.00;0.00;;;;;;;;;;1754671;28;20205;-76
2022/04/29 05:03:15;;;;;;;0.00;0.00;;;;;;;;;;1755081;28;20198;-76
2022/04/29 05:04:07;;;;;;;0.20;0.20;;;;;;;;;;1755248;28;20307;-77
2022/04/29 05:04:58;;;;;;;0.00;0.00;;;;;;;;;;1752001;28;20254;-77
2022/04/29 05:05:50;;;;;;;0.10;0.10;;;;;;;;;;1753955;28;20290;-77
2022/04/29 05:06:42;;;;;;;0.00;0.00;;;;;;;;;;1754370;28;20531;-77
2022/04/29 05:07:34;;;;;;;0.00;0.00;;;;;;;;;;1754255;28;20286;-77
2022/04/29 05:08:25;;;;;;;0.00;0.00;;;;;;;;;;1752447;28;20201;-77
2022/04/29 05:09:17;;;;;;;0.00;0.00;;;;;;;;;;1751326;28;20284;-77
2022/04/29 05:10:09;;;;;;;0.00;0.00;;;;;;;;;;1753992;28;20198;-77
2022/04/29 05:11:02;;;;;;;0.00;0.00;;;;;;;;;;1752219;28;20625;-77
2022/04/29 05:11:53;;;;;;;0.10;0.10;;;;;;;;;;1753062;28;20500;-77
2022/04/29 05:12:46;;;;;;;0.00;0.00;;;;;;;;;;1754696;28;20197;-76
2022/04/29 05:13:37;;;;;;;0.03;0.03;;;;;;;;;;1754402;28;20667;-76
2022/04/29 05:14:29;;;;;;;0.00;0.00;;;;;;;;;;1754955;28;20206;-76
2022/04/29 05:15:21;;;;;;;0.00;0.00;;;;;;;;;;1751884;28;20201;-76
2022/04/29 05:16:14;;;;;;;0.00;0.00;;;;;;;;;;1754816;28;20639;-76
2022/04/29 05:17:05;;;;;;;0.10;0.10;;;;;;;;;;1754545;28;20716;-76
2022/04/29 05:17:57;;;;;;;0.00;0.00;;;;;;;;;;1749518;28;20225;-76